Time;durP1;ratioP1;P1;durP2;ratioP2;P2;SDS_P1;SDS_P2;PMS_P1;PMS_P2;Temp;Humidity;BMP_temperature;BMP_pressure;BME280_temperature;BME280_humidity;BME280_pressure;Samples;Min_cycle;Max_cycle;Signal;HPM_P1;HPM_P2
2022/08/19 02:41:03;;;;;;;;;;;14.80;99.90;;;;;;5057043;28;19929;-84
2022/08/19 02:43:35;;;;;;;;;;;14.80;99.90;;;;;;5046400;28;19933;-89
2022/08/19 02:46:22;;;;;;;;;;;14.90;99.90;;;;;;5045962;28;19968;-88
2022/08/19 02:48:49;;;;;;;;;;;14.60;99.90;;;;;;5043592;28;19931;-85
2022/08/19 04:24:59;;;;;;;;;;;15.10;99.90;;;;;;1499285;23;20225;-84
2022/08/19 04:27:57;;;;;;;;;;;15.10;99.90;;;;;;4950026;28;19937;-86
2022/08/19 04:30:51;;;;;;;;;;;15.10;99.90;;;;;;4953980;28;19927;-86
2022/08/19 04:42:38;;;;;;;;;;;15.10;99.90;;;;;;4963067;28;20024;-84
2022/08/19 04:45:07;;;;;;;;;;;15.00;99.90;;;;;;4972522;28;20034;-89
2022/08/19 04:47:39;;;;;;;;;;;15.00;99.90;;;;;;4952439;28;19926;-84
2022/08/19 04:50:06;;;;;;;;;;;15.00;99.90;;;;;;4959638;28;19931;-85
2022/08/19 04:52:32;;;;;;;;;;;15.00;99.90;;;;;;4969582;28;19933;-82
2022/08/19 04:55:00;;;;;;;;;;;15.00;99.90;;;;;;4968427;28;19926;-84
2022/08/19 04:57:32;;;;;;;;;;;15.00;99.90;;;;;;4942288;28;19934;-83
2022/08/19 05:00:01;;;;;;;;;;;15.10;99.90;;;;;;4964735;28;19933;-83
2022/08/19 05:02:54;;;;;;;;;;;15.10;99.90;;;;;;4967223;28;19933;-87
2022/08/19 05:05:38;;;;;;;;;;;15.00;99.90;;;;;;4946975;28;20013;-84
2022/08/19 05:08:22;;;;;;;;;;;15.20;99.90;;;;;;4960492;28;19926;-88
2022/08/19 05:10:49;;;;;;;;;;;15.20;99.90;;;;;;4950011;28;19926;-84
2022/08/19 05:13:28;;;;;;;;;;;15.20;99.90;;;;;;4949430;28;20021;-84
2022/08/19 05:16:19;;;;;;;;;;;15.30;99.90;;;;;;4967211;28;20685;-84
2022/08/19 06:03:11;;;;;;;;;;;16.30;99.90;;;;;;4916183;29;20442;-87
2022/08/19 06:05:37;;;;;;;;;;;16.40;99.90;;;;;;4882670;29;19966;-85
2022/08/19 06:08:21;;;;;;;;;;;16.70;99.90;;;;;;4901148;29;19970;-88
2022/08/19 06:10:47;;;;;;;;;;;16.60;99.90;;;;;;4922644;29;19937;-86
2022/08/19 06:16:40;;;;;;;;;;;16.70;99.90;;;;;;4937300;29;19970;-85
2022/08/19 06:19:08;;;;;;;;;;;16.80;99.90;;;;;;4919055;29;20384;-85
2022/08/19 06:21:36;;;;;;;;;;;16.90;99.90;;;;;;4926134;29;19933;-86
2022/08/19 06:24:07;;;;;;;;;;;17.00;99.90;;;;;;4917848;29;20357;-82
2022/08/19 06:26:38;;;;;;;;;;;17.20;99.90;;;;;;4923693;29;20507;-84
2022/08/19 06:29:06;;;;;;;;;;;17.30;99.90;;;;;;4918634;29;19927;-85
2022/08/19 06:31:50;;;;;;;;;;;17.40;99.90;;;;;;4926606;29;19949;-85
2022/08/19 06:34:29;;;;;;;;;;;17.50;99.90;;;;;;4930112;29;20412;-84
2022/08/19 06:39:50;;;;;;;;;;;17.70;99.90;;;;;;5278282;22;19936;-85
2022/08/19 06:47:48;;;;;;;;;;;18.20;99.90;;;;;;5006466;23;20012;-85
2022/08/19 06:50:13;;;;;;;;;;;18.50;99.90;;;;;;4952830;28;19925;-86
2022/08/19 06:56:06;;;;;;;;;;;18.70;99.90;;;;;;4991600;28;19964;-89
2022/08/19 06:58:39;;;;;;;;;;;18.80;99.90;;;;;;4949850;28;19975;-82
2022/08/19 07:01:05;;;;;;;;;;;18.90;99.90;;;;;;4957392;28;20347;-82
2022/08/19 07:03:51;;;;;;;;;;;;;;;;;;;;;
2022/08/19 07:06:58;;;;;;;;;;;19.30;99.90;;;;;;4991377;28;19925;-85
2022/08/19 07:09:24;;;;;;;;;;;19.60;99.90;;;;;;4951016;28;20441;-84
2022/08/19 07:12:08;;;;;;;;;;;19.80;99.90;;;;;;4964648;28;19957;-82
2022/08/19 07:14:50;;;;;;;;;;;20.30;99.90;;;;;;4999324;28;19935;-83
2022/08/19 07:20:23;;;;;;;;;;;21.80;99.90;;;;;;4978633;28;19926;-85
2022/08/19 07:23:17;;;;;;;;;;;22.40;99.90;;;;;;4975928;28;20410;-85
2022/08/19 07:26:07;;;;;;;;;;;22.60;99.90;;;;;;4978566;28;19926;-84
2022/08/19 07:28:54;;;;;;;;;;;23.40;99.90;;;;;;4956229;28;20591;-81
2022/08/19 07:34:50;;;;;;;;;;;25.50;99.90;;;;;;4988241;28;19968;-86
2022/08/19 07:37:16;;;;;;;;;;;26.40;99.90;;;;;;4977798;28;20009;-88
2022/08/19 07:39:42;;;;;;;;;;;27.00;99.90;;;;;;4957338;28;20020;-88
2022/08/19 07:42:23;;;;;;;;;;;27.50;99.90;;;;;;4970785;28;19929;-85
2022/08/19 07:48:30;;;;;;;;;;;28.30;99.90;;;;;;4896493;29;20059;-84
2022/08/19 07:51:03;;;;;;;;;;;28.20;99.90;;;;;;4856148;29;20472;-83
2022/08/19 07:53:29;;;;;;;;;;;28.10;99.90;;;;;;4959890;23;19924;-87
2022/08/19 07:56:03;;;;;;;;;;;27.90;99.90;;;;;;4949976;28;20020;-83
2022/08/19 07:58:45;;;;;;;;;;;28.00;99.90;;;;;;4949730;28;20024;-90
2022/08/19 08:01:22;;;;;;;;;;;27.50;99.90;;;;;;4965686;28;19930;-86
2022/08/19 08:09:37;;;;;;;;;;;27.60;99.90;;;;;;4967729;28;19930;-83
2022/08/19 08:12:09;;;;;;;;;;;28.30;99.90;;;;;;4959875;28;19984;-81
2022/08/19 08:14:37;;;;;;;;;;;28.70;99.90;;;;;;4948851;28;19973;-81
2022/08/19 08:17:06;;;;;;;;;;;29.20;99.90;;;;;;4969338;28;19926;-80
2022/08/19 08:19:32;;;;;;;;;;;29.50;99.90;;;;;;4971850;28;20281;-83
2022/08/19 08:21:59;;;;;;;;;;;29.80;99.90;;;;;;4953649;28;19979;-82
2022/08/19 08:24:26;;;;;;;;;;;29.90;99.90;;;;;;4965040;28;20397;-81
2022/08/19 08:26:54;;;;;;;;;;;30.20;99.90;;;;;;4967930;28;19930;-81
2022/08/19 08:29:22;;;;;;;;;;;30.30;99.90;;;;;;4967275;28;19930;-83
2022/08/19 08:31:51;;;;;;;;;;;30.50;99.90;;;;;;4969736;28;20601;-80
2022/08/19 08:34:16;;;;;;;;;;;30.60;99.90;;;;;;4970645;28;19933;-80
2022/08/19 08:36:46;;;;;;;;;;;30.50;98.80;;;;;;4951025;28;19930;-79
2022/08/19 08:39:13;;;;;;;;;;;30.60;99.90;;;;;;4974187;28;20113;-77
2022/08/19 08:42:00;;;;;;;;;;;30.60;99.30;;;;;;4969299;28;19936;-78
2022/08/19 08:44:40;;;;;;;;;;;30.40;97.30;;;;;;4978479;28;20297;-77
2022/08/19 08:47:12;;;;;;;;;;;30.40;95.90;;;;;;4953696;28;19968;-77
2022/08/19 08:49:47;;;;;;;;;;;30.30;97.60;;;;;;4971808;28;19929;-78
2022/08/19 08:52:17;;;;;;;;;;;30.30;96.90;;;;;;4972240;28;20366;-78
2022/08/19 08:54:45;;;;;;;;;;;30.10;96.50;;;;;;4967163;28;19930;-79
2022/08/19 08:57:13;;;;;;;;;;;30.00;97.50;;;;;;4972040;28;20344;-80
2022/08/19 08:59:40;;;;;;;;;;;29.70;96.90;;;;;;4950575;28;20286;-78
2022/08/19 09:02:07;;;;;;;;;;;29.50;97.80;;;;;;4954470;28;19932;-79
2022/08/19 09:04:34;;;;;;;;;;;29.20;98.20;;;;;;4971388;28;19925;-79
2022/08/19 09:07:03;;;;;;;;;;;28.80;98.80;;;;;;4989958;28;20142;-79
2022/08/19 09:09:39;;;;;;;;;;;28.50;98.40;;;;;;4955551;28;19926;-80
2022/08/19 09:12:11;;;;;;;;;;;28.10;99.20;;;;;;4972688;28;19926;-80
2022/08/19 09:14:41;;;;;;;;;;;27.70;99.80;;;;;;4969545;28;20016;-80
2022/08/19 09:17:09;;;;;;;;;;;27.50;99.90;;;;;;4966003;28;20116;-81
2022/08/19 09:19:36;;;;;;;;;;;27.40;99.90;;;;;;4953985;28;19941;-80
2022/08/19 09:22:02;;;;;;;;;;;27.30;99.90;;;;;;4956364;28;19926;-80
2022/08/19 09:24:27;;;;;;;;;;;27.20;99.90;;;;;;4965178;28;20719;-80
2022/08/19 09:26:53;;;;;;;;;;;27.20;99.90;;;;;;4958423;28;19936;-79
2022/08/19 09:29:20;;;;;;;;;;;27.20;99.90;;;;;;4959872;28;19972;-80
2022/08/19 09:31:46;;;;;;;;;;;27.20;99.90;;;;;;4945243;28;20474;-81
2022/08/19 09:34:12;;;;;;;;;;;27.20;99.90;;;;;;4935351;28;19981;-78
2022/08/19 09:36:38;;;;;;;;;;;27.30;99.90;;;;;;4945347;28;20352;-82
2022/08/19 09:39:05;;;;;;;;;;;27.20;99.90;;;;;;4939690;28;19930;-83
2022/08/19 09:41:31;;;;;;;;;;;27.20;99.90;;;;;;4960670;28;19997;-79
2022/08/19 09:43:58;;;;;;;;;;;27.20;99.90;;;;;;4925633;28;20030;-81
2022/08/19 09:46:26;;;;;;;;;;;27.30;99.90;;;;;;4967158;28;19934;-83
2022/08/19 09:48:53;;;;;;;;;;;27.40;99.90;;;;;;4964552;28;19937;-80
2022/08/19 09:51:21;;;;;;;;;;;27.40;99.90;;;;;;4958656;28;19937;-80
2022/08/19 09:53:49;;;;;;;;;;;27.40;99.90;;;;;;4948739;28;20028;-81
2022/08/19 09:56:16;;;;;;;;;;;27.50;99.90;;;;;;4946111;28;19929;-79
2022/08/19 09:58:42;;;;;;;;;;;27.60;99.90;;;;;;4930319;28;20447;-82
2022/08/19 10:01:08;;;;;;;;;;;27.70;99.90;;;;;;4960956;28;19930;-81
2022/08/19 10:03:40;;;;;;;;;;;27.70;99.90;;;;;;4946173;28;20027;-82
2022/08/19 10:06:06;;;;;;;;;;;27.80;99.90;;;;;;4961303;28;20446;-80
2022/08/19 10:08:33;;;;;;;;;;;27.90;99.90;;;;;;4944860;28;20016;-80
2022/08/19 10:11:01;;;;;;;;;;;28.00;99.90;;;;;;4926905;28;19937;-78
2022/08/19 10:13:28;;;;;;;;;;;28.10;99.90;;;;;;4926448;28;19934;-79
2022/08/19 10:16:03;;;;;;;;;;;28.10;99.90;;;;;;4942864;28;20356;-79
2022/08/19 10:18:32;;;;;;;;;;;28.20;99.90;;;;;;4958530;28;20369;-81
2022/08/19 10:21:08;;;;;;;;;;;28.20;99.90;;;;;;4942589;28;19930;-80
2022/08/19 10:23:35;;;;;;;;;;;28.20;99.90;;;;;;4944517;28;19930;-80
2022/08/19 10:26:03;;;;;;;;;;;28.30;99.90;;;;;;4947686;28;19926;-82
2022/08/19 10:28:28;;;;;;;;;;;28.30;99.90;;;;;;4951790;28;19926;-81
2022/08/19 10:30:54;;;;;;;;;;;28.40;99.90;;;;;;4924268;28;19926;-81
2022/08/19 10:33:20;;;;;;;;;;;28.50;99.90;;;;;;4954280;28;19926;-79
2022/08/19 10:35:46;;;;;;;;;;;28.50;99.90;;;;;;4925159;28;20017;-82
2022/08/19 10:38:12;;;;;;;;;;;28.60;99.90;;;;;;4953153;28;19933;-80
2022/08/19 10:40:37;;;;;;;;;;;28.50;97.50;;;;;;4927416;28;20321;-80
2022/08/19 10:43:17;;;;;;;;;;;28.50;99.20;;;;;;4931117;28;19934;-80
2022/08/19 10:45:51;;;;;;;;;;;28.40;99.30;;;;;;4931523;28;20032;-79
2022/08/19 10:48:17;;;;;;;;;;;28.30;98.70;;;;;;4947215;28;20026;-80
2022/08/19 10:53:27;;;;;;;;;;;28.10;99.80;;;;;;4954189;28;20192;-82
2022/08/19 10:58:37;;;;;;;;;;;28.00;99.40;;;;;;4951735;28;19937;-82
2022/08/19 11:01:03;;;;;;;;;;;27.70;99.90;;;;;;4929185;28;19926;-81
2022/08/19 11:03:30;;;;;;;;;;;27.70;99.90;;;;;;4948008;28;19989;-82
2022/08/19 11:06:03;;;;;;;;;;;27.80;99.40;;;;;;4939736;28;20021;-79
2022/08/19 11:08:30;;;;;;;;;;;27.90;99.90;;;;;;4937183;28;20076;-79
2022/08/19 11:11:00;;;;;;;;;;;28.00;99.90;;;;;;4929297;28;20756;-80
2022/08/19 11:13:36;;;;;;;;;;;28.00;99.90;;;;;;4945320;28;19923;-81
2022/08/19 11:16:07;;;;;;;;;;;28.00;99.90;;;;;;4944984;28;20385;-80
2022/08/19 11:18:42;;;;;;;;;;;28.00;98.60;;;;;;4931919;28;19930;-79
2022/08/19 11:21:19;;;;;;;;;;;27.70;99.90;;;;;;4946417;28;19933;-81
2022/08/19 11:23:46;;;;;;;;;;;27.30;99.90;;;;;;4948501;28;19926;-78
2022/08/19 11:26:13;;;;;;;;;;;27.10;99.90;;;;;;4931151;28;20385;-83
2022/08/19 11:28:39;;;;;;;;;;;27.20;99.90;;;;;;4930686;28;20070;-79
2022/08/19 11:31:13;;;;;;;;;;;27.50;99.90;;;;;;4930556;28;19942;-84
2022/08/19 11:33:39;;;;;;;;;;;27.70;99.90;;;;;;4928180;28;19965;-82
2022/08/19 11:36:07;;;;;;;;;;;27.90;99.90;;;;;;4949637;28;20289;-79
2022/08/19 11:38:35;;;;;;;;;;;28.00;99.90;;;;;;4917129;28;20424;-79
2022/08/19 11:41:03;;;;;;;;;;;28.20;99.90;;;;;;4944530;28;20117;-82
2022/08/19 11:43:29;;;;;;;;;;;28.30;99.90;;;;;;4944957;28;20285;-82
2022/08/19 11:45:55;;;;;;;;;;;28.20;99.90;;;;;;4939213;28;20235;-80
2022/08/19 11:48:21;;;;;;;;;;;28.20;99.90;;;;;;4945563;28;19934;-80
2022/08/19 11:50:51;;;;;;;;;;;28.20;99.90;;;;;;4935145;28;20185;-84
2022/08/19 11:53:19;;;;;;;;;;;28.20;99.90;;;;;;4950905;28;19938;-79
2022/08/19 11:55:45;;;;;;;;;;;28.10;99.90;;;;;;4918533;28;19934;-79
2022/08/19 11:58:11;;;;;;;;;;;27.90;99.90;;;;;;4947561;28;19949;-81
2022/08/19 12:00:37;;;;;;;;;;;27.60;99.90;;;;;;4921613;28;19934;-81
2022/08/19 12:03:09;;;;;;;;;;;27.50;99.90;;;;;;4928577;28;19933;-79
2022/08/19 12:05:36;;;;;;;;;;;27.50;99.90;;;;;;4921879;28;19930;-80
2022/08/19 12:08:02;;;;;;;;;;;27.40;99.90;;;;;;4941194;28;20357;-81
2022/08/19 12:10:28;;;;;;;;;;;27.30;99.90;;;;;;4958621;28;19929;-83
2022/08/19 12:12:54;;;;;;;;;;;27.30;99.90;;;;;;4944365;28;19933;-78
2022/08/19 12:15:19;;;;;;;;;;;27.10;99.90;;;;;;4971106;28;20008;-81
2022/08/19 12:17:48;;;;;;;;;;;27.10;99.90;;;;;;4953339;28;20059;-78
2022/08/19 12:20:15;;;;;;;;;;;27.00;99.90;;;;;;4937906;28;20412;-83
2022/08/19 12:22:41;;;;;;;;;;;26.90;99.90;;;;;;4945210;28;19929;-79
2022/08/19 12:25:09;;;;;;;;;;;26.80;99.90;;;;;;4954555;28;20293;-83
2022/08/19 12:27:35;;;;;;;;;;;26.70;99.90;;;;;;4955471;28;19981;-80
2022/08/19 12:30:04;;;;;;;;;;;26.60;99.90;;;;;;4952163;28;19981;-79
2022/08/19 12:32:29;;;;;;;;;;;26.50;99.90;;;;;;4967005;28;19926;-79
2022/08/19 12:34:55;;;;;;;;;;;26.40;99.90;;;;;;4954537;28;20056;-80
2022/08/19 12:37:21;;;;;;;;;;;26.30;99.90;;;;;;4956276;28;19933;-79
2022/08/19 12:39:47;;;;;;;;;;;26.20;99.90;;;;;;4953708;28;20017;-79
2022/08/19 12:42:14;;;;;;;;;;;26.20;99.90;;;;;;4954353;28;19929;-79
2022/08/19 12:44:41;;;;;;;;;;;26.20;99.90;;;;;;4952767;28;19930;-79
2022/08/19 12:47:07;;;;;;;;;;;26.20;99.90;;;;;;4951250;28;19940;-82
2022/08/19 12:49:34;;;;;;;;;;;26.20;99.90;;;;;;4956282;28;20043;-80
2022/08/19 12:52:00;;;;;;;;;;;26.20;99.90;;;;;;4937537;28;19929;-81
2022/08/19 12:54:26;;;;;;;;;;;26.20;99.90;;;;;;4943348;28;19930;-80
2022/08/19 12:56:52;;;;;;;;;;;26.20;99.90;;;;;;4955141;28;19945;-78
2022/08/19 12:59:18;;;;;;;;;;;26.20;99.90;;;;;;4970609;28;19933;-81
2022/08/19 13:01:44;;;;;;;;;;;26.20;99.90;;;;;;4955483;28;19933;-80
2022/08/19 13:04:10;;;;;;;;;;;26.20;99.90;;;;;;4936632;28;19925;-80
2022/08/19 13:06:36;;;;;;;;;;;26.20;99.90;;;;;;4958229;28;20562;-78
2022/08/19 13:09:05;;;;;;;;;;;26.20;99.90;;;;;;4952697;28;19925;-80
2022/08/19 13:11:34;;;;;;;;;;;26.10;99.90;;;;;;4970473;28;20424;-81
2022/08/19 13:14:01;;;;;;;;;;;26.10;99.90;;;;;;4987005;28;20017;-81
2022/08/19 13:16:27;;;;;;;;;;;26.10;99.90;;;;;;4957980;28;19932;-81
2022/08/19 13:18:53;;;;;;;;;;;26.00;99.90;;;;;;4954211;28;19933;-80
2022/08/19 13:21:21;;;;;;;;;;;25.90;99.90;;;;;;4954171;28;20399;-78
2022/08/19 13:23:48;;;;;;;;;;;25.90;99.90;;;;;;4953825;28;19930;-81
2022/08/19 13:26:14;;;;;;;;;;;25.80;99.90;;;;;;4969193;28;19930;-81
2022/08/19 13:34:11;;;;;;;;;;;25.40;99.90;;;;;;4971474;28;19926;-80
2022/08/19 13:36:37;;;;;;;;;;;24.90;99.90;;;;;;4955729;28;19949;-81
2022/08/19 13:39:04;;;;;;;;;;;24.60;99.90;;;;;;4954356;28;20045;-81
2022/08/19 13:41:30;;;;;;;;;;;24.40;99.90;;;;;;4956652;28;20389;-81
2022/08/19 13:43:56;;;;;;;;;;;24.20;99.90;;;;;;4971327;28;20424;-79
2022/08/19 13:46:22;;;;;;;;;;;24.10;99.90;;;;;;4956747;28;19929;-80
2022/08/19 13:48:48;;;;;;;;;;;24.00;99.90;;;;;;4941518;28;20017;-79
2022/08/19 13:51:17;;;;;;;;;;;23.90;99.90;;;;;;4973459;28;19929;-79
2022/08/19 13:53:43;;;;;;;;;;;23.90;99.90;;;;;;4953872;28;19976;-80
2022/08/19 13:56:10;;;;;;;;;;;24.00;99.90;;;;;;4937174;28;19934;-77
2022/08/19 13:58:36;;;;;;;;;;;24.00;99.90;;;;;;4945964;28;19995;-79
2022/08/19 14:01:06;;;;;;;;;;;24.00;99.90;;;;;;4974314;28;19938;-80
2022/08/19 14:03:32;;;;;;;;;;;23.90;99.90;;;;;;4962264;28;19925;-80
2022/08/19 14:05:58;;;;;;;;;;;23.90;99.90;;;;;;4961921;28;20340;-80
2022/08/19 14:08:25;;;;;;;;;;;23.80;99.90;;;;;;4951906;28;19936;-78
2022/08/19 14:10:51;;;;;;;;;;;23.70;99.90;;;;;;4948073;28;20304;-78
2022/08/19 14:13:18;;;;;;;;;;;23.70;99.90;;;;;;4944584;28;19926;-80
2022/08/19 14:15:45;;;;;;;;;;;23.60;99.90;;;;;;4946386;28;19926;-79
2022/08/19 14:18:11;;;;;;;;;;;23.50;99.90;;;;;;4953560;28;19988;-80
2022/08/19 14:20:37;;;;;;;;;;;23.50;99.90;;;;;;4944858;28;19933;-81
2022/08/19 14:23:05;;;;;;;;;;;23.50;99.90;;;;;;4927426;28;19933;-79
2022/08/19 14:25:31;;;;;;;;;;;23.50;99.90;;;;;;4954794;28;19934;-80
2022/08/19 14:27:57;;;;;;;;;;;23.40;99.90;;;;;;4961813;28;20415;-79
2022/08/19 14:30:27;;;;;;;;;;;23.50;99.90;;;;;;4942983;28;19929;-80
2022/08/19 14:32:54;;;;;;;;;;;23.50;99.90;;;;;;4959672;28;19961;-79
2022/08/19 14:35:21;;;;;;;;;;;23.50;99.90;;;;;;4963743;28;19980;-79
2022/08/19 14:37:48;;;;;;;;;;;23.40;99.90;;;;;;4960129;28;20440;-79
2022/08/19 14:40:15;;;;;;;;;;;23.40;99.90;;;;;;4950241;28;19930;-79
2022/08/19 14:42:42;;;;;;;;;;;23.40;99.90;;;;;;4964050;28;20407;-79
2022/08/19 14:45:08;;;;;;;;;;;23.50;99.90;;;;;;4936853;28;19932;-79
2022/08/19 14:47:34;;;;;;;;;;;23.50;99.90;;;;;;4951759;28;20016;-79
2022/08/19 14:50:00;;;;;;;;;;;23.50;99.90;;;;;;4957298;28;20020;-79
2022/08/19 14:52:26;;;;;;;;;;;23.50;99.90;;;;;;4960362;28;19937;-81
2022/08/19 14:54:52;;;;;;;;;;;23.60;99.90;;;;;;4954340;28;19932;-81
2022/08/19 14:57:19;;;;;;;;;;;23.70;99.90;;;;;;4921830;28;19930;-80
2022/08/19 14:59:45;;;;;;;;;;;23.70;99.90;;;;;;4939379;28;19925;-79
2022/08/19 15:02:11;;;;;;;;;;;23.70;99.90;;;;;;4953915;28;19993;-79
2022/08/19 15:04:37;;;;;;;;;;;23.70;99.90;;;;;;4954736;28;20727;-80
2022/08/19 15:07:04;;;;;;;;;;;23.80;99.90;;;;;;4952796;28;19963;-79
2022/08/19 15:09:30;;;;;;;;;;;23.70;99.90;;;;;;4944517;28;19934;-81
2022/08/19 15:11:58;;;;;;;;;;;23.70;99.90;;;;;;4958058;28;19926;-79
2022/08/19 15:14:24;;;;;;;;;;;23.70;99.90;;;;;;4958495;28;19930;-79
2022/08/19 15:16:50;;;;;;;;;;;23.80;99.90;;;;;;4959078;28;20022;-80
2022/08/19 15:19:17;;;;;;;;;;;23.80;99.90;;;;;;4959832;28;20012;-81
2022/08/19 15:21:43;;;;;;;;;;;23.80;99.90;;;;;;4925817;28;19926;-80
2022/08/19 15:24:08;;;;;;;;;;;23.80;99.90;;;;;;4961045;28;19926;-81
2022/08/19 15:26:34;;;;;;;;;;;23.80;99.90;;;;;;4922975;28;19936;-81
2022/08/19 15:29:01;;;;;;;;;;;23.70;99.90;;;;;;4924785;28;20412;-81
2022/08/19 15:31:27;;;;;;;;;;;23.70;99.90;;;;;;4953011;28;19973;-81
2022/08/19 15:33:57;;;;;;;;;;;23.70;99.90;;;;;;4959472;28;19936;-78
2022/08/19 15:36:23;;;;;;;;;;;23.80;99.90;;;;;;4946476;28;19929;-80
2022/08/19 15:38:52;;;;;;;;;;;23.80;99.90;;;;;;4952063;28;19984;-81
2022/08/19 15:41:36;;;;;;;;;;;23.80;99.90;;;;;;4927806;28;19930;-79
2022/08/19 15:44:04;;;;;;;;;;;23.80;99.90;;;;;;4965706;28;19950;-78
2022/08/19 15:46:32;;;;;;;;;;;23.80;99.90;;;;;;4946601;28;19930;-79
2022/08/19 15:48:58;;;;;;;;;;;23.80;99.90;;;;;;4956266;28;19930;-79
2022/08/19 15:51:24;;;;;;;;;;;23.60;99.90;;;;;;4960153;28;19936;-80
2022/08/19 15:53:50;;;;;;;;;;;23.60;99.90;;;;;;4929190;28;19929;-79
2022/08/19 15:56:17;;;;;;;;;;;23.50;99.90;;;;;;4959781;28;19930;-79
2022/08/19 16:06:46;;;;;;;;;;;23.10;99.90;;;;;;4965476;28;20397;-79
2022/08/19 16:09:12;;;;;;;;;;;23.10;99.90;;;;;;4952819;28;19929;-79
2022/08/19 16:11:39;;;;;;;;;;;23.10;99.90;;;;;;4962698;28;19937;-77
2022/08/19 16:14:08;;;;;;;;;;;23.10;99.90;;;;;;4968408;28;19926;-80
2022/08/19 16:16:34;;;;;;;;;;;23.20;99.90;;;;;;4961727;28;19950;-79
2022/08/19 16:19:02;;;;;;;;;;;23.20;99.90;;;;;;4948981;28;20297;-83
2022/08/19 16:21:33;;;;;;;;;;;23.20;99.90;;;;;;4944689;28;19933;-79
2022/08/19 16:23:59;;;;;;;;;;;23.20;99.90;;;;;;4961261;28;19964;-80
2022/08/19 16:26:30;;;;;;;;;;;23.20;99.90;;;;;;4927250;28;20283;-79
2022/08/19 16:29:07;;;;;;;;;;;23.20;99.90;;;;;;4942959;28;19926;-80
2022/08/19 16:31:42;;;;;;;;;;;23.10;99.90;;;;;;4960048;28;20020;-81
2022/08/19 16:34:16;;;;;;;;;;;23.10;99.90;;;;;;4947901;28;20377;-80
2022/08/19 16:36:44;;;;;;;;;;;23.30;99.90;;;;;;4933177;28;19926;-79
2022/08/19 16:39:11;;;;;;;;;;;23.10;99.90;;;;;;4944908;28;20021;-79
2022/08/19 16:41:37;;;;;;;;;;;23.10;99.90;;;;;;4962321;28;20408;-81
2022/08/19 16:44:04;;;;;;;;;;;23.00;99.90;;;;;;4931569;28;20581;-81
2022/08/19 16:46:30;;;;;;;;;;;23.00;99.90;;;;;;4964073;28;19930;-78
2022/08/19 16:49:05;;;;;;;;;;;23.10;99.90;;;;;;4955193;28;20289;-81
2022/08/19 16:51:37;;;;;;;;;;;23.10;99.90;;;;;;4957870;28;20399;-81
2022/08/19 16:54:04;;;;;;;;;;;23.10;99.90;;;;;;4960089;28;20388;-79
2022/08/19 16:56:33;;;;;;;;;;;23.10;99.90;;;;;;4944748;28;20751;-80
2022/08/19 16:58:59;;;;;;;;;;;23.00;99.90;;;;;;4949945;28;20055;-80
2022/08/19 17:01:26;;;;;;;;;;;23.00;99.90;;;;;;4940644;28;19962;-82
2022/08/19 17:03:52;;;;;;;;;;;23.00;99.90;;;;;;4941912;28;19946;-78
2022/08/19 17:06:26;;;;;;;;;;;23.00;99.90;;;;;;4957466;28;19937;-79
2022/08/19 17:08:54;;;;;;;;;;;23.00;99.90;;;;;;4974908;28;19981;-83
2022/08/19 17:11:23;;;;;;;;;;;23.00;99.90;;;;;;4957479;28;19933;-85
2022/08/19 17:13:49;;;;;;;;;;;22.90;99.90;;;;;;4949297;28;19930;-79
2022/08/19 17:16:16;;;;;;;;;;;22.90;99.90;;;;;;4971737;28;19930;-86
2022/08/19 17:18:43;;;;;;;;;;;22.90;99.90;;;;;;4944892;28;19949;-79
2022/08/19 17:21:11;;;;;;;;;;;22.90;99.90;;;;;;4974027;28;19988;-85
2022/08/19 17:23:38;;;;;;;;;;;22.80;99.90;;;;;;4956772;28;19953;-81
2022/08/19 17:26:11;;;;;;;;;;;22.80;99.90;;;;;;4974878;28;19934;-87
2022/08/19 17:28:37;;;;;;;;;;;22.80;99.90;;;;;;4953462;28;19925;-87
2022/08/19 17:31:06;;;;;;;;;;;22.20;99.90;;;;;;4939116;28;19927;-81
2022/08/19 17:33:32;;;;;;;;;;;22.70;99.90;;;;;;4954948;28;20083;-79
2022/08/19 17:35:59;;;;;;;;;;;22.80;99.90;;;;;;4970024;28;19992;-81
2022/08/19 17:38:25;;;;;;;;;;;22.70;99.90;;;;;;4940728;28;19948;-79
2022/08/19 17:41:03;;;;;;;;;;;22.80;99.90;;;;;;4954045;28;19933;-82
2022/08/19 17:43:31;;;;;;;;;;;22.80;99.90;;;;;;4952306;28;19926;-81
2022/08/19 17:46:01;;;;;;;;;;;22.90;99.90;;;;;;4936366;28;20012;-81
2022/08/19 17:48:31;;;;;;;;;;;22.90;99.90;;;;;;4940195;28;19929;-84
2022/08/19 17:51:14;;;;;;;;;;;22.90;99.90;;;;;;4971461;28;20303;-82
2022/08/19 17:53:39;;;;;;;;;;;22.80;99.90;;;;;;4954993;28;19952;-81
2022/08/19 17:56:12;;;;;;;;;;;22.70;99.90;;;;;;4954913;28;19925;-80
2022/08/19 17:58:39;;;;;;;;;;;22.60;99.90;;;;;;4954961;28;19934;-80
2022/08/19 18:01:10;;;;;;;;;;;22.60;99.90;;;;;;4969491;28;19926;-80
2022/08/19 18:03:36;;;;;;;;;;;22.60;99.90;;;;;;4970280;28;19934;-81
2022/08/19 18:06:02;;;;;;;;;;;22.50;99.90;;;;;;4954119;28;19934;-80
2022/08/19 18:08:28;;;;;;;;;;;22.40;99.90;;;;;;4965345;28;19953;-81
2022/08/19 18:10:54;;;;;;;;;;;22.40;99.90;;;;;;4926962;28;19990;-83
2022/08/19 18:13:26;;;;;;;;;;;22.40;99.90;;;;;;4949692;28;19935;-81
2022/08/19 18:15:52;;;;;;;;;;;22.40;99.90;;;;;;4940337;28;19926;-81
2022/08/19 18:18:18;;;;;;;;;;;22.40;99.90;;;;;;4948787;28;19940;-82
2022/08/19 18:20:43;;;;;;;;;;;22.40;99.90;;;;;;4917401;28;20873;-82
2022/08/19 18:23:10;;;;;;;;;;;22.40;99.90;;;;;;4937781;28;19933;-82
2022/08/19 18:25:36;;;;;;;;;;;22.40;99.90;;;;;;4932880;28;19926;-82
2022/08/19 18:28:02;;;;;;;;;;;22.40;99.90;;;;;;4944572;28;20370;-82
2022/08/19 18:30:33;;;;;;;;;;;22.30;99.90;;;;;;4914097;28;19938;-83
2022/08/19 18:32:59;;;;;;;;;;;22.30;99.90;;;;;;4940948;28;19982;-83
2022/08/19 18:35:31;;;;;;;;;;;22.20;99.90;;;;;;4959277;28;19929;-84
2022/08/19 18:49:03;;;;;;;;;;;22.20;99.90;;;;;;4935965;28;19926;-81
2022/08/19 18:49:51;;;;;;;;;;;22.00;99.90;;;;;;4958431;28;20373;-83
2022/08/19 18:52:35;;;;;;;;;;;22.00;99.90;;;;;;4935734;28;19937;-84
2022/08/19 18:58:21;;;;;;;;;;;22.00;99.90;;;;;;4949724;28;19995;-85
2022/08/19 19:01:03;;;;;;;;;;;21.90;99.90;;;;;;4934826;28;20644;-81
2022/08/19 19:03:44;;;;;;;;;;;21.90;99.90;;;;;;4921273;28;19934;-85
2022/08/19 19:06:27;;;;;;;;;;;21.90;99.90;;;;;;4946398;28;19934;-82
2022/08/19 19:08:56;;;;;;;;;;;21.80;99.90;;;;;;4942778;28;20350;-84
2022/08/19 19:11:26;;;;;;;;;;;21.70;99.90;;;;;;4930763;28;19937;-84
2022/08/19 19:13:56;;;;;;;;;;;21.70;99.90;;;;;;4934913;28;19922;-86
2022/08/19 19:16:47;;;;;;;;;;;21.70;99.90;;;;;;4942057;28;20407;-83
2022/08/19 19:19:49;;;;;;;;;;;21.60;99.90;;;;;;4954622;28;19926;-84
2022/08/19 19:22:49;;;;;;;;;;;21.60;99.90;;;;;;4946664;28;19930;-87
2022/08/19 19:25:42;;;;;;;;;;;21.60;99.90;;;;;;4934480;28;19941;-84
2022/08/19 19:28:09;;;;;;;;;;;21.50;99.90;;;;;;4933971;28;19929;-84
2022/08/19 19:30:35;;;;;;;;;;;21.40;99.90;;;;;;4936063;28;19941;-85
2022/08/19 19:33:01;;;;;;;;;;;21.40;99.90;;;;;;4957471;28;19923;-83
2022/08/19 19:35:28;;;;;;;;;;;21.50;99.90;;;;;;4930009;28;19931;-85
2022/08/19 19:37:58;;;;;;;;;;;21.40;99.90;;;;;;4924196;28;19933;-84
2022/08/19 19:40:24;;;;;;;;;;;21.30;99.90;;;;;;4939522;28;19926;-85
2022/08/19 19:42:51;;;;;;;;;;;21.30;99.90;;;;;;4962873;28;19948;-84
2022/08/19 19:45:17;;;;;;;;;;;21.20;99.90;;;;;;4943182;28;20037;-84
2022/08/19 19:47:46;;;;;;;;;;;21.00;99.90;;;;;;4941684;28;19966;-83
2022/08/19 19:50:13;;;;;;;;;;;21.00;99.90;;;;;;4961472;28;20320;-82
2022/08/19 19:52:39;;;;;;;;;;;20.90;99.90;;;;;;4930288;28;20333;-83
2022/08/19 19:55:06;;;;;;;;;;;20.90;99.90;;;;;;4945044;28;19980;-83
2022/08/19 19:57:32;;;;;;;;;;;20.80;99.90;;;;;;4944721;28;19926;-82
2022/08/19 19:59:58;;;;;;;;;;;20.80;99.90;;;;;;4934760;28;20111;-83
2022/08/19 20:02:24;;;;;;;;;;;20.80;99.90;;;;;;4928389;28;19966;-83
2022/08/19 20:04:52;;;;;;;;;;;20.80;99.90;;;;;;4932745;28;21241;-83
2022/08/19 20:09:06;;;;;;;;;;;20.70;99.90;;;;;;4939498;28;19937;-83
2022/08/19 20:10:04;;;;;;;;;;;20.70;99.90;;;;;;4968485;28;19930;-82
2022/08/19 20:12:30;;;;;;;;;;;20.70;99.90;;;;;;4935519;28;19930;-81
2022/08/19 20:14:56;;;;;;;;;;;20.70;99.90;;;;;;4948054;28;19933;-82
2022/08/19 20:17:22;;;;;;;;;;;20.60;99.90;;;;;;4935678;28;19929;-82
2022/08/19 20:19:48;;;;;;;;;;;20.70;99.90;;;;;;4970484;28;20659;-82
2022/08/19 20:22:14;;;;;;;;;;;20.70;99.90;;;;;;4952960;28;20400;-82
2022/08/19 20:24:41;;;;;;;;;;;20.60;99.90;;;;;;4946114;28;19933;-82
2022/08/19 20:27:07;;;;;;;;;;;20.60;99.90;;;;;;4949876;28;19925;-81
2022/08/19 20:29:33;;;;;;;;;;;20.60;99.90;;;;;;4949125;28;19930;-81
2022/08/19 20:31:59;;;;;;;;;;;20.60;99.90;;;;;;4965298;28;20088;-82
2022/08/19 20:34:25;;;;;;;;;;;20.50;99.90;;;;;;4945129;28;19926;-80
2022/08/19 20:36:57;;;;;;;;;;;20.50;99.90;;;;;;4960125;28;19936;-81
2022/08/19 20:39:23;;;;;;;;;;;20.50;99.90;;;;;;4952913;28;20389;-81
2022/08/19 20:41:49;;;;;;;;;;;20.50;99.90;;;;;;4959519;28;19934;-81